sensor_id;sensor_type;location;lat;lon;timestamp;temperature;humidity
52859;DHT22;38721;53.098;6.596;2022-12-11T00:01:53;-0.60;99.90
52859;DHT22;38721;53.098;6.596;2022-12-11T00:04:19;-0.50;99.90
52859;DHT22;38721;53.098;6.596;2022-12-11T00:06:48;-0.50;99.90
52859;DHT22;38721;53.098;6.596;2022-12-11T00:09:19;-0.50;99.90
52859;DHT22;38721;53.098;6.596;2022-12-11T00:11:47;-0.50;99.90
52859;DHT22;38721;53.098;6.596;2022-12-11T00:14:36;-0.50;99.90
52859;DHT22;38721;53.098;6.596;2022-12-11T00:17:08;-0.40;99.90
52859;DHT22;38721;53.098;6.596;2022-12-11T00:20:31;-0.40;99.90
52859;DHT22;38721;53.098;6.596;2022-12-11T00:23:09;-0.40;99.90
52859;DHT22;38721;53.098;6.596;2022-12-11T00:26:11;-0.40;99.90
52859;DHT22;38721;53.098;6.596;2022-12-11T00:28:56;-0.40;99.90
52859;DHT22;38721;53.098;6.596;2022-12-11T00:31:35;-0.30;99.90
52859;DHT22;38721;53.098;6.596;2022-12-11T00:34:07;-0.30;99.90
52859;DHT22;38721;53.098;6.596;2022-12-11T00:43:25;-0.30;99.90
52859;DHT22;38721;53.098;6.596;2022-12-11T00:46:11;-0.30;99.90
52859;DHT22;38721;53.098;6.596;2022-12-11T00:49:05;-0.20;99.90
52859;DHT22;38721;53.098;6.596;2022-12-11T00:51:40;-0.20;99.90
52859;DHT22;38721;53.098;6.596;2022-12-11T00:54:07;-0.20;99.90
52859;DHT22;38721;53.098;6.596;2022-12-11T00:56:32;-0.20;99.90
52859;DHT22;38721;53.098;6.596;2022-12-11T00:59:04;-0.10;99.90
52859;DHT22;38721;53.098;6.596;2022-12-11T01:01:36;-0.10;99.90
52859;DHT22;38721;53.098;6.596;2022-12-11T01:04:29;-0.10;99.90
52859;DHT22;38721;53.098;6.596;2022-12-11T01:06:57;-0.10;99.90
52859;DHT22;38721;53.098;6.596;2022-12-11T01:09:46;-0.10;99.90
52859;DHT22;38721;53.098;6.596;2022-12-11T01:12:53;0.00;99.90
52859;DHT22;38721;53.098;6.596;2022-12-11T01:15:26;-0.10;99.90
52859;DHT22;38721;53.098;6.596;2022-12-11T01:17:53;-0.10;99.90
52859;DHT22;38721;53.098;6.596;2022-12-11T01:20:42;0.00;99.90
52859;DHT22;38721;53.098;6.596;2022-12-11T01:23:10;0.00;99.90
52859;DHT22;38721;53.098;6.596;2022-12-11T01:25:37;0.00;99.90
52859;DHT22;38721;53.098;6.596;2022-12-11T01:28:10;0.10;99.90
52859;DHT22;38721;53.098;6.596;2022-12-11T01:30:41;0.00;99.90
52859;DHT22;38721;53.098;6.596;2022-12-11T01:33:14;0.10;99.90
52859;DHT22;38721;53.098;6.596;2022-12-11T01:35:46;0.10;99.90
52859;DHT22;38721;53.098;6.596;2022-12-11T01:38:21;0.00;99.90
52859;DHT22;38721;53.098;6.596;2022-12-11T01:40:48;0.10;99.90
52859;DHT22;38721;53.098;6.596;2022-12-11T01:43:14;0.10;99.90
52859;DHT22;38721;53.098;6.596;2022-12-11T01:45:45;0.10;99.90
52859;DHT22;38721;53.098;6.596;2022-12-11T01:48:18;0.20;99.90
52859;DHT22;38721;53.098;6.596;2022-12-11T01:50:59;0.10;99.90
52859;DHT22;38721;53.098;6.596;2022-12-11T01:53:39;0.20;99.90
52859;DHT22;38721;53.098;6.596;2022-12-11T01:56:07;0.20;99.90
52859;DHT22;38721;53.098;6.596;2022-12-11T01:58:53;0.20;99.90
52859;DHT22;38721;53.098;6.596;2022-12-11T02:01:26;0.20;99.90
52859;DHT22;38721;53.098;6.596;2022-12-11T02:03:55;0.30;99.90
52859;DHT22;38721;53.098;6.596;2022-12-11T02:06:32;0.20;99.90
52859;DHT22;38721;53.098;6.596;2022-12-11T02:08:58;0.30;99.90
52859;DHT22;38721;53.098;6.596;2022-12-11T02:11:32;0.20;99.90
52859;DHT22;38721;53.098;6.596;2022-12-11T02:14:26;0.20;99.90
52859;DHT22;38721;53.098;6.596;2022-12-11T02:20:13;0.30;99.90
52859;DHT22;38721;53.098;6.596;2022-12-11T02:31:21;0.30;99.90
52859;DHT22;38721;53.098;6.596;2022-12-11T02:34:12;0.30;99.90
52859;DHT22;38721;53.098;6.596;2022-12-11T02:36:46;0.30;99.90
52859;DHT22;38721;53.098;6.596;2022-12-11T02:42:41;0.30;99.90
52859;DHT22;38721;53.098;6.596;2022-12-11T02:45:11;0.30;99.90
52859;DHT22;38721;53.098;6.596;2022-12-11T02:47:38;0.30;99.90
52859;DHT22;38721;53.098;6.596;2022-12-11T02:50:09;0.40;99.90
52859;DHT22;38721;53.098;6.596;2022-12-11T02:52:40;0.40;99.90
52859;DHT22;38721;53.098;6.596;2022-12-11T02:55:08;0.30;99.90
52859;DHT22;38721;53.098;6.596;2022-12-11T02:57:57;0.40;99.90
52859;DHT22;38721;53.098;6.596;2022-12-11T03:00:26;0.30;99.90
52859;DHT22;38721;53.098;6.596;2022-12-11T03:02:52;0.30;99.90
52859;DHT22;38721;53.098;6.596;2022-12-11T03:05:18;0.40;99.90
52859;DHT22;38721;53.098;6.596;2022-12-11T03:07:44;0.30;99.90
52859;DHT22;38721;53.098;6.596;2022-12-11T03:10:12;0.40;99.90
52859;DHT22;38721;53.098;6.596;2022-12-11T03:12:46;0.40;99.90
52859;DHT22;38721;53.098;6.596;2022-12-11T03:15:20;0.40;99.90
52859;DHT22;38721;53.098;6.596;2022-12-11T03:25:46;0.50;99.90
52859;DHT22;38721;53.098;6.596;2022-12-11T03:30:52;0.50;99.90
52859;DHT22;38721;53.098;6.596;2022-12-11T03:33:33;0.40;99.90
52859;DHT22;38721;53.098;6.596;2022-12-11T03:36:13;0.40;99.90
52859;DHT22;38721;53.098;6.596;2022-12-11T03:38:46;0.50;99.90
52859;DHT22;38721;53.098;6.596;2022-12-11T03:41:16;0.50;99.90
52859;DHT22;38721;53.098;6.596;2022-12-11T03:43:43;0.50;99.90
52859;DHT22;38721;53.098;6.596;2022-12-11T03:46:11;0.50;99.90
52859;DHT22;38721;53.098;6.596;2022-12-11T03:48:43;0.50;99.90
52859;DHT22;38721;53.098;6.596;2022-12-11T03:51:10;0.50;99.90
52859;DHT22;38721;53.098;6.596;2022-12-11T03:53:43;0.40;99.90
52859;DHT22;38721;53.098;6.596;2022-12-11T03:56:10;0.50;99.90
52859;DHT22;38721;53.098;6.596;2022-12-11T03:58:41;0.50;99.90
52859;DHT22;38721;53.098;6.596;2022-12-11T04:01:12;0.60;99.90
52859;DHT22;38721;53.098;6.596;2022-12-11T04:03:38;0.60;99.90
52859;DHT22;38721;53.098;6.596;2022-12-11T04:06:04;0.50;99.90
52859;DHT22;38721;53.098;6.596;2022-12-11T04:08:30;0.50;99.90
52859;DHT22;38721;53.098;6.596;2022-12-11T04:10:56;0.50;99.90
52859;DHT22;38721;53.098;6.596;2022-12-11T04:13:43;0.60;99.90
52859;DHT22;38721;53.098;6.596;2022-12-11T04:16:09;0.50;99.90
52859;DHT22;38721;53.098;6.596;2022-12-11T04:18:35;0.50;99.90
52859;DHT22;38721;53.098;6.596;2022-12-11T04:21:20;0.50;99.90
52859;DHT22;38721;53.098;6.596;2022-12-11T04:24:04;0.50;99.90
52859;DHT22;38721;53.098;6.596;2022-12-11T04:26:51;0.60;99.90
52859;DHT22;38721;53.098;6.596;2022-12-11T04:29:16;0.50;99.90
52859;DHT22;38721;53.098;6.596;2022-12-11T04:31:42;0.60;99.90
52859;DHT22;38721;53.098;6.596;2022-12-11T04:34:08;0.60;99.90
52859;DHT22;38721;53.098;6.596;2022-12-11T04:36:34;0.60;99.90
52859;DHT22;38721;53.098;6.596;2022-12-11T04:50:07;0.60;99.90
52859;DHT22;38721;53.098;6.596;2022-12-11T04:52:33;0.60;99.90
52859;DHT22;38721;53.098;6.596;2022-12-11T04:54:59;0.60;99.90
52859;DHT22;38721;53.098;6.596;2022-12-11T04:57:33;0.50;99.90
52859;DHT22;38721;53.098;6.596;2022-12-11T04:59:59;0.60;99.90
52859;DHT22;38721;53.098;6.596;2022-12-11T05:02:25;0.60;99.90
52859;DHT22;38721;53.098;6.596;2022-12-11T05:04:51;0.60;99.90
52859;DHT22;38721;53.098;6.596;2022-12-11T05:07:38;0.50;99.90
52859;DHT22;38721;53.098;6.596;2022-12-11T05:10:09;0.50;99.90
52859;DHT22;38721;53.098;6.596;2022-12-11T05:12:38;0.60;99.90
52859;DHT22;38721;53.098;6.596;2022-12-11T05:15:04;0.60;99.90
52859;DHT22;38721;53.098;6.596;2022-12-11T05:17:32;0.60;99.90
52859;DHT22;38721;53.098;6.596;2022-12-11T05:19:58;0.60;99.90
52859;DHT22;38721;53.098;6.596;2022-12-11T05:22:24;0.60;99.90
52859;DHT22;38721;53.098;6.596;2022-12-11T05:24:50;0.60;99.90
52859;DHT22;38721;53.098;6.596;2022-12-11T05:27:15;0.60;99.90
52859;DHT22;38721;53.098;6.596;2022-12-11T05:29:44;0.60;99.90
52859;DHT22;38721;53.098;6.596;2022-12-11T05:32:10;0.60;99.90
52859;DHT22;38721;53.098;6.596;2022-12-11T05:34:36;0.60;99.90
52859;DHT22;38721;53.098;6.596;2022-12-11T05:37:06;0.60;99.90
52859;DHT22;38721;53.098;6.596;2022-12-11T05:39:38;0.60;99.90
52859;DHT22;38721;53.098;6.596;2022-12-11T05:42:16;0.70;99.90
52859;DHT22;38721;53.098;6.596;2022-12-11T05:44:42;0.60;99.90
52859;DHT22;38721;53.098;6.596;2022-12-11T05:47:07;0.70;99.90
52859;DHT22;38721;53.098;6.596;2022-12-11T05:49:33;0.60;99.90
52859;DHT22;38721;53.098;6.596;2022-12-11T05:51:59;0.70;99.90
52859;DHT22;38721;53.098;6.596;2022-12-11T05:54:24;0.70;99.90
52859;DHT22;38721;53.098;6.596;2022-12-11T05:56:50;0.70;99.90
52859;DHT22;38721;53.098;6.596;2022-12-11T05:59:19;0.70;99.90
52859;DHT22;38721;53.098;6.596;2022-12-11T06:01:54;0.70;99.90
52859;DHT22;38721;53.098;6.596;2022-12-11T06:04:23;0.60;99.90
52859;DHT22;38721;53.098;6.596;2022-12-11T06:06:52;0.70;99.90
52859;DHT22;38721;53.098;6.596;2022-12-11T06:09:18;0.70;99.90
52859;DHT22;38721;53.098;6.596;2022-12-11T06:11:44;0.70;99.90
52859;DHT22;38721;53.098;6.596;2022-12-11T06:14:15;0.70;99.90
52859;DHT22;38721;53.098;6.596;2022-12-11T06:16:41;0.70;99.90
52859;DHT22;38721;53.098;6.596;2022-12-11T06:19:12;0.70;99.90
52859;DHT22;38721;53.098;6.596;2022-12-11T06:21:38;0.70;99.90
52859;DHT22;38721;53.098;6.596;2022-12-11T06:24:09;0.70;99.90
52859;DHT22;38721;53.098;6.596;2022-12-11T06:26:34;0.70;99.90
52859;DHT22;38721;53.098;6.596;2022-12-11T06:29:00;0.70;99.90
52859;DHT22;38721;53.098;6.596;2022-12-11T06:31:26;0.70;99.90
52859;DHT22;38721;53.098;6.596;2022-12-11T06:33:57;0.70;99.90
52859;DHT22;38721;53.098;6.596;2022-12-11T06:36:24;0.70;99.90
52859;DHT22;38721;53.098;6.596;2022-12-11T06:38:51;0.70;99.90
52859;DHT22;38721;53.098;6.596;2022-12-11T06:41:16;0.70;99.90
52859;DHT22;38721;53.098;6.596;2022-12-11T06:43:42;0.70;99.90
52859;DHT22;38721;53.098;6.596;2022-12-11T06:46:11;0.70;99.90
52859;DHT22;38721;53.098;6.596;2022-12-11T06:48:41;0.70;99.90
52859;DHT22;38721;53.098;6.596;2022-12-11T06:51:10;0.70;99.90
52859;DHT22;38721;53.098;6.596;2022-12-11T06:53:37;0.70;99.90
52859;DHT22;38721;53.098;6.596;2022-12-11T06:56:05;0.70;99.90
52859;DHT22;38721;53.098;6.596;2022-12-11T06:58:35;0.70;99.90
52859;DHT22;38721;53.098;6.596;2022-12-11T07:01:03;0.80;99.90
52859;DHT22;38721;53.098;6.596;2022-12-11T07:03:28;0.70;99.90
52859;DHT22;38721;53.098;6.596;2022-12-11T07:06:00;0.70;99.90
52859;DHT22;38721;53.098;6.596;2022-12-11T07:08:27;0.70;99.90
52859;DHT22;38721;53.098;6.596;2022-12-11T07:10:53;0.70;99.90
52859;DHT22;38721;53.098;6.596;2022-12-11T07:13:19;0.70;99.90
52859;DHT22;38721;53.098;6.596;2022-12-11T07:15:48;0.80;99.90
52859;DHT22;38721;53.098;6.596;2022-12-11T07:18:14;0.80;99.90
52859;DHT22;38721;53.098;6.596;2022-12-11T07:20:40;0.80;99.90
52859;DHT22;38721;53.098;6.596;2022-12-11T07:23:05;0.70;99.90
52859;DHT22;38721;53.098;6.596;2022-12-11T07:25:31;0.70;99.90
52859;DHT22;38721;53.098;6.596;2022-12-11T07:27:57;0.70;99.90
52859;DHT22;38721;53.098;6.596;2022-12-11T07:30:23;0.70;99.90
52859;DHT22;38721;53.098;6.596;2022-12-11T07:32:48;0.70;99.90
52859;DHT22;38721;53.098;6.596;2022-12-11T07:35:14;0.70;99.90
52859;DHT22;38721;53.098;6.596;2022-12-11T07:37:43;0.70;99.90
52859;DHT22;38721;53.098;6.596;2022-12-11T07:40:10;0.70;99.90
52859;DHT22;38721;53.098;6.596;2022-12-11T07:42:39;0.80;99.90
52859;DHT22;38721;53.098;6.596;2022-12-11T07:45:05;0.70;99.90
52859;DHT22;38721;53.098;6.596;2022-12-11T07:47:35;0.80;99.90
52859;DHT22;38721;53.098;6.596;2022-12-11T07:50:07;0.70;99.90
52859;DHT22;38721;53.098;6.596;2022-12-11T07:52:35;0.70;99.90
52859;DHT22;38721;53.098;6.596;2022-12-11T07:55:01;0.70;99.90
52859;DHT22;38721;53.098;6.596;2022-12-11T07:57:27;0.80;99.90
52859;DHT22;38721;53.098;6.596;2022-12-11T07:59:54;0.70;99.90
52859;DHT22;38721;53.098;6.596;2022-12-11T08:02:20;0.70;99.90
52859;DHT22;38721;53.098;6.596;2022-12-11T08:04:46;0.80;99.90
52859;DHT22;38721;53.098;6.596;2022-12-11T08:07:12;0.80;99.90
52859;DHT22;38721;53.098;6.596;2022-12-11T08:09:38;0.80;99.90
52859;DHT22;38721;53.098;6.596;2022-12-11T08:12:07;0.80;99.90
52859;DHT22;38721;53.098;6.596;2022-12-11T08:14:33;0.70;99.90
52859;DHT22;38721;53.098;6.596;2022-12-11T08:17:01;0.80;99.90
52859;DHT22;38721;53.098;6.596;2022-12-11T08:19:27;0.70;99.90
52859;DHT22;38721;53.098;6.596;2022-12-11T08:21:53;0.80;99.90
52859;DHT22;38721;53.098;6.596;2022-12-11T08:24:19;0.80;99.90
52859;DHT22;38721;53.098;6.596;2022-12-11T08:26:48;0.80;99.90
52859;DHT22;38721;53.098;6.596;2022-12-11T08:29:14;0.80;99.90
52859;DHT22;38721;53.098;6.596;2022-12-11T08:31:43;0.80;99.90
52859;DHT22;38721;53.098;6.596;2022-12-11T08:34:08;0.80;99.90
52859;DHT22;38721;53.098;6.596;2022-12-11T08:36:41;0.80;99.90
52859;DHT22;38721;53.098;6.596;2022-12-11T08:39:08;0.80;99.90
52859;DHT22;38721;53.098;6.596;2022-12-11T08:41:34;0.80;99.90
52859;DHT22;38721;53.098;6.596;2022-12-11T08:44:00;0.90;99.90
52859;DHT22;38721;53.098;6.596;2022-12-11T08:46:32;0.80;99.90
52859;DHT22;38721;53.098;6.596;2022-12-11T08:48:58;0.80;99.90
52859;DHT22;38721;53.098;6.596;2022-12-11T08:51:26;0.90;99.90
52859;DHT22;38721;53.098;6.596;2022-12-11T08:53:57;0.80;99.90
52859;DHT22;38721;53.098;6.596;2022-12-11T08:56:24;0.80;99.90
52859;DHT22;38721;53.098;6.596;2022-12-11T08:58:51;0.90;99.90
52859;DHT22;38721;53.098;6.596;2022-12-11T09:01:21;0.90;99.90
52859;DHT22;38721;53.098;6.596;2022-12-11T09:03:52;0.90;99.90
52859;DHT22;38721;53.098;6.596;2022-12-11T09:06:21;0.80;99.90
52859;DHT22;38721;53.098;6.596;2022-12-11T09:08:49;0.90;99.90
52859;DHT22;38721;53.098;6.596;2022-12-11T09:11:20;0.90;99.90
52859;DHT22;38721;53.098;6.596;2022-12-11T09:13:50;0.90;99.90
52859;DHT22;38721;53.098;6.596;2022-12-11T09:16:20;0.90;99.90
52859;DHT22;38721;53.098;6.596;2022-12-11T09:18:51;0.90;99.90
52859;DHT22;38721;53.098;6.596;2022-12-11T09:21:22;0.90;99.90
52859;DHT22;38721;53.098;6.596;2022-12-11T09:24:04;1.00;99.90
52859;DHT22;38721;53.098;6.596;2022-12-11T09:26:35;0.90;99.90
52859;DHT22;38721;53.098;6.596;2022-12-11T09:29:05;0.90;99.90
52859;DHT22;38721;53.098;6.596;2022-12-11T09:31:35;1.00;99.90
52859;DHT22;38721;53.098;6.596;2022-12-11T09:34:07;1.00;99.90
52859;DHT22;38721;53.098;6.596;2022-12-11T09:36:33;1.10;99.90
52859;DHT22;38721;53.098;6.596;2022-12-11T09:39:04;1.10;99.90
52859;DHT22;38721;53.098;6.596;2022-12-11T09:44:33;1.20;99.90
52859;DHT22;38721;53.098;6.596;2022-12-11T09:47:00;1.10;99.90
52859;DHT22;38721;53.098;6.596;2022-12-11T09:49:40;1.10;99.90
52859;DHT22;38721;53.098;6.596;2022-12-11T09:54:58;1.00;99.90
52859;DHT22;38721;53.098;6.596;2022-12-11T10:08:51;1.10;99.90
52859;DHT22;38721;53.098;6.596;2022-12-11T10:11:27;1.20;99.90
52859;DHT22;38721;53.098;6.596;2022-12-11T10:17:09;1.20;99.90
52859;DHT22;38721;53.098;6.596;2022-12-11T10:19:40;1.20;99.90
52859;DHT22;38721;53.098;6.596;2022-12-11T10:22:13;1.20;99.90
52859;DHT22;38721;53.098;6.596;2022-12-11T10:25:00;1.20;99.90
52859;DHT22;38721;53.098;6.596;2022-12-11T10:27:33;1.30;99.90
52859;DHT22;38721;53.098;6.596;2022-12-11T10:30:17;1.30;99.90
52859;DHT22;38721;53.098;6.596;2022-12-11T10:35:35;1.30;99.90
52859;DHT22;38721;53.098;6.596;2022-12-11T10:38:26;1.30;99.90
52859;DHT22;38721;53.098;6.596;2022-12-11T10:41:08;1.20;99.90
52859;DHT22;38721;53.098;6.596;2022-12-11T10:43:37;1.30;99.90
52859;DHT22;38721;53.098;6.596;2022-12-11T10:46:05;1.30;99.90
52859;DHT22;38721;53.098;6.596;2022-12-11T10:48:32;1.30;99.90
52859;DHT22;38721;53.098;6.596;2022-12-11T10:51:04;1.30;99.90
52859;DHT22;38721;53.098;6.596;2022-12-11T10:53:32;1.30;99.90
52859;DHT22;38721;53.098;6.596;2022-12-11T10:55:59;1.30;99.90
52859;DHT22;38721;53.098;6.596;2022-12-11T10:58:28;1.30;99.90
52859;DHT22;38721;53.098;6.596;2022-12-11T11:01:05;1.30;99.90
52859;DHT22;38721;53.098;6.596;2022-12-11T11:03:34;1.30;99.90
52859;DHT22;38721;53.098;6.596;2022-12-11T11:06:13;1.30;99.90
52859;DHT22;38721;53.098;6.596;2022-12-11T11:08:51;1.40;99.90
52859;DHT22;38721;53.098;6.596;2022-12-11T11:14:03;1.40;99.90
52859;DHT22;38721;53.098;6.596;2022-12-11T11:16:29;1.40;99.90
52859;DHT22;38721;53.098;6.596;2022-12-11T11:18:56;1.40;99.90
52859;DHT22;38721;53.098;6.596;2022-12-11T11:21:24;1.40;99.90
52859;DHT22;38721;53.098;6.596;2022-12-11T11:23:53;1.40;99.90
52859;DHT22;38721;53.098;6.596;2022-12-11T11:26:20;1.40;99.90
52859;DHT22;38721;53.098;6.596;2022-12-11T11:28:56;1.40;99.90
52859;DHT22;38721;53.098;6.596;2022-12-11T11:31:33;1.30;99.90
52859;DHT22;38721;53.098;6.596;2022-12-11T11:34:07;1.50;99.90
52859;DHT22;38721;53.098;6.596;2022-12-11T11:36:36;1.40;99.90
52859;DHT22;38721;53.098;6.596;2022-12-11T11:39:25;1.50;99.90
52859;DHT22;38721;53.098;6.596;2022-12-11T11:44:29;1.40;99.90
52859;DHT22;38721;53.098;6.596;2022-12-11T11:52:29;1.50;99.90
52859;DHT22;38721;53.098;6.596;2022-12-11T11:55:18;1.50;99.90
52859;DHT22;38721;53.098;6.596;2022-12-11T11:58:23;1.50;99.90
52859;DHT22;38721;53.098;6.596;2022-12-11T12:00:51;1.50;99.90
52859;DHT22;38721;53.098;6.596;2022-12-11T12:03:22;1.50;99.90
52859;DHT22;38721;53.098;6.596;2022-12-11T12:06:09;1.50;99.90
52859;DHT22;38721;53.098;6.596;2022-12-11T12:08:50;1.50;99.90
52859;DHT22;38721;53.098;6.596;2022-12-11T12:17:00;1.70;99.90
52859;DHT22;38721;53.098;6.596;2022-12-11T12:22:22;1.70;99.90
52859;DHT22;38721;53.098;6.596;2022-12-11T12:27:39;1.50;99.90
52859;DHT22;38721;53.098;6.596;2022-12-11T12:30:11;1.50;99.90
52859;DHT22;38721;53.098;6.596;2022-12-11T12:35:41;1.60;99.90
52859;DHT22;38721;53.098;6.596;2022-12-11T12:38:12;1.60;99.90
52859;DHT22;38721;53.098;6.596;2022-12-11T12:48:28;1.60;99.90
52859;DHT22;38721;53.098;6.596;2022-12-11T12:50:54;1.70;99.90
52859;DHT22;38721;53.098;6.596;2022-12-11T12:53:24;1.50;99.90
52859;DHT22;38721;53.098;6.596;2022-12-11T12:55:54;1.60;99.90
52859;DHT22;38721;53.098;6.596;2022-12-11T13:01:07;1.50;99.90
52859;DHT22;38721;53.098;6.596;2022-12-11T13:03:50;1.40;99.90
52859;DHT22;38721;53.098;6.596;2022-12-11T13:06:40;1.50;99.90
52859;DHT22;38721;53.098;6.596;2022-12-11T13:11:42;1.60;99.90
52859;DHT22;38721;53.098;6.596;2022-12-11T13:16:42;1.50;99.90
52859;DHT22;38721;53.098;6.596;2022-12-11T13:22:02;1.40;99.90
52859;DHT22;38721;53.098;6.596;2022-12-11T13:24:30;1.40;99.90
52859;DHT22;38721;53.098;6.596;2022-12-11T13:27:20;1.40;99.90
52859;DHT22;38721;53.098;6.596;2022-12-11T13:29:47;1.50;99.90
52859;DHT22;38721;53.098;6.596;2022-12-11T13:34:49;1.50;99.90
52859;DHT22;38721;53.098;6.596;2022-12-11T13:37:40;1.50;99.90
52859;DHT22;38721;53.098;6.596;2022-12-11T13:40:28;1.50;99.90
52859;DHT22;38721;53.098;6.596;2022-12-11T13:42:58;1.60;99.90
52859;DHT22;38721;53.098;6.596;2022-12-11T13:47:55;1.50;99.90
52859;DHT22;38721;53.098;6.596;2022-12-11T13:50:28;1.50;99.90
52859;DHT22;38721;53.098;6.596;2022-12-11T13:53:02;1.60;99.90
52859;DHT22;38721;53.098;6.596;2022-12-11T13:55:32;1.60;99.90
52859;DHT22;38721;53.098;6.596;2022-12-11T13:57:59;1.60;99.90
52859;DHT22;38721;53.098;6.596;2022-12-11T14:00:30;1.60;99.90
52859;DHT22;38721;53.098;6.596;2022-12-11T14:03:03;1.50;99.90
52859;DHT22;38721;53.098;6.596;2022-12-11T14:05:33;1.50;99.90
52859;DHT22;38721;53.098;6.596;2022-12-11T14:08:08;1.60;99.90
52859;DHT22;38721;53.098;6.596;2022-12-11T14:10:35;1.50;99.90
52859;DHT22;38721;53.098;6.596;2022-12-11T14:13:25;1.50;99.90
52859;DHT22;38721;53.098;6.596;2022-12-11T14:15:52;1.50;99.90
52859;DHT22;38721;53.098;6.596;2022-12-11T14:18:29;1.40;99.90
52859;DHT22;38721;53.098;6.596;2022-12-11T14:21:01;1.40;99.90
52859;DHT22;38721;53.098;6.596;2022-12-11T14:23:29;1.50;99.90
52859;DHT22;38721;53.098;6.596;2022-12-11T14:26:02;1.40;99.90
52859;DHT22;38721;53.098;6.596;2022-12-11T14:28:34;1.40;99.90
52859;DHT22;38721;53.098;6.596;2022-12-11T14:31:03;1.40;99.90
52859;DHT22;38721;53.098;6.596;2022-12-11T14:34:03;1.40;99.90
52859;DHT22;38721;53.098;6.596;2022-12-11T14:36:32;1.30;99.90
52859;DHT22;38721;53.098;6.596;2022-12-11T14:39:03;1.40;99.90
52859;DHT22;38721;53.098;6.596;2022-12-11T14:42:01;1.40;99.90
52859;DHT22;38721;53.098;6.596;2022-12-11T14:44:32;1.40;99.90
52859;DHT22;38721;53.098;6.596;2022-12-11T14:47:05;1.30;99.90
52859;DHT22;38721;53.098;6.596;2022-12-11T14:49:47;1.30;99.90
52859;DHT22;38721;53.098;6.596;2022-12-11T14:52:20;1.30;99.90
52859;DHT22;38721;53.098;6.596;2022-12-11T14:55:00;1.40;99.90
52859;DHT22;38721;53.098;6.596;2022-12-11T14:57:28;1.40;99.90
52859;DHT22;38721;53.098;6.596;2022-12-11T14:59:55;1.40;99.90
52859;DHT22;38721;53.098;6.596;2022-12-11T15:02:28;1.30;99.90
52859;DHT22;38721;53.098;6.596;2022-12-11T15:05:18;1.40;99.90
52859;DHT22;38721;53.098;6.596;2022-12-11T15:08:16;1.30;99.90
52859;DHT22;38721;53.098;6.596;2022-12-11T15:11:21;1.30;99.90
52859;DHT22;38721;53.098;6.596;2022-12-11T15:13:57;1.30;99.90
52859;DHT22;38721;53.098;6.596;2022-12-11T15:16:26;1.30;99.90
52859;DHT22;38721;53.098;6.596;2022-12-11T15:18:53;1.30;99.90
52859;DHT22;38721;53.098;6.596;2022-12-11T15:21:28;1.30;99.90
52859;DHT22;38721;53.098;6.596;2022-12-11T15:23:56;1.30;99.90
52859;DHT22;38721;53.098;6.596;2022-12-11T15:26:44;1.30;99.90
52859;DHT22;38721;53.098;6.596;2022-12-11T15:29:33;1.30;99.90
52859;DHT22;38721;53.098;6.596;2022-12-11T15:32:01;1.30;99.90
52859;DHT22;38721;53.098;6.596;2022-12-11T15:34:41;1.20;99.90
52859;DHT22;38721;53.098;6.596;2022-12-11T15:37:18;1.30;99.90
52859;DHT22;38721;53.098;6.596;2022-12-11T15:39:44;1.20;99.90
52859;DHT22;38721;53.098;6.596;2022-12-11T15:42:13;1.20;99.90
52859;DHT22;38721;53.098;6.596;2022-12-11T15:44:40;1.30;99.90
52859;DHT22;38721;53.098;6.596;2022-12-11T15:47:13;1.20;99.90
52859;DHT22;38721;53.098;6.596;2022-12-11T15:49:40;1.20;99.90
52859;DHT22;38721;53.098;6.596;2022-12-11T15:52:06;1.20;99.90
52859;DHT22;38721;53.098;6.596;2022-12-11T15:54:31;1.10;99.90
52859;DHT22;38721;53.098;6.596;2022-12-11T15:56:58;1.20;99.90
52859;DHT22;38721;53.098;6.596;2022-12-11T15:59:26;1.10;99.90
52859;DHT22;38721;53.098;6.596;2022-12-11T16:01:52;1.10;99.90
52859;DHT22;38721;53.098;6.596;2022-12-11T16:04:17;1.10;99.90
52859;DHT22;38721;53.098;6.596;2022-12-11T16:06:43;1.10;99.90
52859;DHT22;38721;53.098;6.596;2022-12-11T16:09:11;1.10;99.90
52859;DHT22;38721;53.098;6.596;2022-12-11T16:11:36;1.00;99.90
52859;DHT22;38721;53.098;6.596;2022-12-11T16:14:02;1.10;99.90
52859;DHT22;38721;53.098;6.596;2022-12-11T16:16:29;1.00;99.90
52859;DHT22;38721;53.098;6.596;2022-12-11T16:18:55;1.00;99.90
52859;DHT22;38721;53.098;6.596;2022-12-11T16:21:21;1.00;99.90
52859;DHT22;38721;53.098;6.596;2022-12-11T16:23:47;1.00;99.90
52859;DHT22;38721;53.098;6.596;2022-12-11T16:26:12;1.00;99.90
52859;DHT22;38721;53.098;6.596;2022-12-11T16:28:40;1.00;99.90
52859;DHT22;38721;53.098;6.596;2022-12-11T16:31:13;1.00;99.90
52859;DHT22;38721;53.098;6.596;2022-12-11T16:33:40;1.00;99.90
52859;DHT22;38721;53.098;6.596;2022-12-11T16:36:14;1.00;99.90
52859;DHT22;38721;53.098;6.596;2022-12-11T16:38:40;1.00;99.90
52859;DHT22;38721;53.098;6.596;2022-12-11T16:41:06;1.10;99.90
52859;DHT22;38721;53.098;6.596;2022-12-11T16:43:32;1.00;99.90
52859;DHT22;38721;53.098;6.596;2022-12-11T16:45:57;0.90;99.90
52859;DHT22;38721;53.098;6.596;2022-12-11T16:48:23;0.90;99.90
52859;DHT22;38721;53.098;6.596;2022-12-11T16:50:52;0.90;99.90
52859;DHT22;38721;53.098;6.596;2022-12-11T16:53:19;1.00;99.90
52859;DHT22;38721;53.098;6.596;2022-12-11T16:55:45;1.00;99.90
52859;DHT22;38721;53.098;6.596;2022-12-11T16:58:10;0.90;99.90
52859;DHT22;38721;53.098;6.596;2022-12-11T17:00:41;1.00;99.90
52859;DHT22;38721;53.098;6.596;2022-12-11T17:03:06;1.00;99.90
52859;DHT22;38721;53.098;6.596;2022-12-11T17:05:32;0.90;99.90
52859;DHT22;38721;53.098;6.596;2022-12-11T17:07:58;0.90;99.90
52859;DHT22;38721;53.098;6.596;2022-12-11T17:10:23;0.90;99.90
52859;DHT22;38721;53.098;6.596;2022-12-11T17:12:49;0.90;99.90
52859;DHT22;38721;53.098;6.596;2022-12-11T17:15:15;0.90;99.90
52859;DHT22;38721;53.098;6.596;2022-12-11T17:17:40;0.90;99.90
52859;DHT22;38721;53.098;6.596;2022-12-11T17:20:09;0.90;99.90
52859;DHT22;38721;53.098;6.596;2022-12-11T17:22:35;0.90;99.90
52859;DHT22;38721;53.098;6.596;2022-12-11T17:25:01;0.90;99.90
52859;DHT22;38721;53.098;6.596;2022-12-11T17:27:27;0.90;99.90
52859;DHT22;38721;53.098;6.596;2022-12-11T17:29:52;0.90;99.90
52859;DHT22;38721;53.098;6.596;2022-12-11T17:32:18;0.80;99.90
52859;DHT22;38721;53.098;6.596;2022-12-11T17:34:45;0.80;99.90
52859;DHT22;38721;53.098;6.596;2022-12-11T17:37:15;0.80;99.90
52859;DHT22;38721;53.098;6.596;2022-12-11T17:39:41;0.80;99.90
52859;DHT22;38721;53.098;6.596;2022-12-11T17:42:07;0.80;99.90
52859;DHT22;38721;53.098;6.596;2022-12-11T17:44:36;0.70;99.90
52859;DHT22;38721;53.098;6.596;2022-12-11T17:47:02;0.80;99.90
52859;DHT22;38721;53.098;6.596;2022-12-11T17:49:28;0.80;99.90
52859;DHT22;38721;53.098;6.596;2022-12-11T17:51:53;0.80;99.90
52859;DHT22;38721;53.098;6.596;2022-12-11T17:54:20;0.80;99.90
52859;DHT22;38721;53.098;6.596;2022-12-11T17:56:46;0.80;99.90
52859;DHT22;38721;53.098;6.596;2022-12-11T17:59:12;0.80;99.90
52859;DHT22;38721;53.098;6.596;2022-12-11T18:01:38;0.70;99.90
52859;DHT22;38721;53.098;6.596;2022-12-11T18:04:04;0.70;99.90
52859;DHT22;38721;53.098;6.596;2022-12-11T18:06:30;0.80;99.90